Time;durP1;ratioP1;P1;durP2;ratioP2;P2;SDS_P1;SDS_P2;PMS_P1;PMS_P2;Temp;Humidity;BMP_temperature;BMP_pressure;BME280_temperature;BME280_humidity;BME280_pressure;Samples;Min_cycle;Max_cycle;Signal;HPM_P1;HPM_P2
2024/04/25 00:02:30;;;;;;;1.98;1.65;;;;;;;;;;5472375;26;20095;-64
2024/04/25 00:05:00;;;;;;;1.50;1.40;;;;;;;;;;5474943;26;20017;-64
2024/04/25 00:07:33;;;;;;;1.38;1.20;;;;;;;;;;5469884;26;20082;-63
2024/04/25 00:10:03;;;;;;;1.33;1.20;;;;;;;;;;5467873;26;19998;-67
2024/04/25 00:12:33;;;;;;;1.35;1.10;;;;;;;;;;5476022;26;20002;-65
2024/04/25 00:15:03;;;;;;;1.50;1.23;;;;;;;;;;5481037;26;20013;-63
2024/04/25 00:17:33;;;;;;;1.35;1.25;;;;;;;;;;5477858;26;20002;-64
2024/04/25 00:20:04;;;;;;;1.70;1.25;;;;;;;;;;5484872;26;20455;-65
2024/04/25 00:22:37;;;;;;;2.28;1.67;;;;;;;;;;5476212;26;20022;-66
2024/04/25 00:25:07;;;;;;;1.67;1.00;;;;;;;;;;5475148;26;20002;-64
2024/04/25 00:27:38;;;;;;;3.35;1.27;;;;;;;;;;5470070;26;20035;-65
2024/04/25 00:30:08;;;;;;;1.20;1.10;;;;;;;;;;5471445;26;19999;-64
2024/04/25 00:32:38;;;;;;;2.13;1.58;;;;;;;;;;5460950;26;20320;-65
2024/04/25 00:35:09;;;;;;;1.45;1.30;;;;;;;;;;5483370;26;19998;-65
2024/04/25 00:37:42;;;;;;;1.70;1.30;;;;;;;;;;5468005;26;20010;-64
2024/04/25 00:40:10;;;;;;;1.30;1.15;;;;;;;;;;5466634;26;20338;-64
2024/04/25 00:42:40;;;;;;;1.30;1.20;;;;;;;;;;5470017;26;20003;-64
2024/04/25 00:45:10;;;;;;;1.38;1.27;;;;;;;;;;5473902;26;19998;-65
2024/04/25 00:47:41;;;;;;;2.42;1.42;;;;;;;;;;5462659;26;20331;-66
2024/04/25 00:50:11;;;;;;;2.78;1.42;;;;;;;;;;5483769;26;20042;-65
2024/04/25 00:52:44;;;;;;;2.13;1.40;;;;;;;;;;5464076;26;20018;-65
2024/04/25 00:55:14;;;;;;;1.52;1.20;;;;;;;;;;5471291;26;20002;-64
2024/04/25 00:57:46;;;;;;;3.47;1.35;;;;;;;;;;5466775;26;20074;-65
2024/04/25 01:00:18;;;;;;;1.60;1.35;;;;;;;;;;5462509;26;20349;-65
2024/04/25 01:02:48;;;;;;;2.00;1.30;;;;;;;;;;5468601;26;20014;-64
2024/04/25 01:05:18;;;;;;;1.98;1.42;;;;;;;;;;5482549;26;20009;-63
2024/04/25 01:07:51;;;;;;;2.05;1.52;;;;;;;;;;5460657;26;20021;-64
2024/04/25 01:10:21;;;;;;;1.38;1.27;;;;;;;;;;5470059;26;19998;-67
2024/04/25 01:12:52;;;;;;;2.60;1.50;;;;;;;;;;5450078;26;20079;-64
2024/04/25 01:15:22;;;;;;;2.15;1.52;;;;;;;;;;5462076;26;19999;-65
2024/04/25 01:17:52;;;;;;;2.30;1.67;;;;;;;;;;5453237;26;20348;-64
2024/04/25 01:20:22;;;;;;;3.25;1.65;;;;;;;;;;5467173;26;20002;-64
2024/04/25 01:22:56;;;;;;;2.60;1.50;;;;;;;;;;5465989;26;20025;-64
2024/04/25 01:25:30;;;;;;;2.63;1.58;;;;;;;;;;5485533;26;20013;-67
2024/04/25 01:28:00;;;;;;;2.10;1.50;;;;;;;;;;5471004;26;20002;-63
2024/04/25 01:30:30;;;;;;;2.55;1.55;;;;;;;;;;5469794;26;19999;-65
2024/04/25 01:33:00;;;;;;;3.75;1.98;;;;;;;;;;5475380;26;20007;-64
2024/04/25 01:35:32;;;;;;;2.30;1.58;;;;;;;;;;5465509;26;19999;-65
2024/04/25 01:38:02;;;;;;;2.22;1.48;;;;;;;;;;5473572;26;20002;-65
2024/04/25 01:40:35;;;;;;;2.50;1.73;;;;;;;;;;5469933;26;20088;-64
2024/04/25 01:43:05;;;;;;;2.55;1.75;;;;;;;;;;5476051;26;20018;-65
2024/04/25 01:45:36;;;;;;;2.35;1.50;;;;;;;;;;5473266;26;20072;-66
2024/04/25 01:48:06;;;;;;;3.45;2.15;;;;;;;;;;5486747;26;20002;-66
2024/04/25 01:50:36;;;;;;;1.95;1.58;;;;;;;;;;5480609;26;20022;-67
2024/04/25 01:53:07;;;;;;;2.05;1.50;;;;;;;;;;5481894;26;20452;-64
2024/04/25 01:55:40;;;;;;;3.15;1.75;;;;;;;;;;5475582;26;20049;-65
2024/04/25 01:58:10;;;;;;;1.92;1.52;;;;;;;;;;5473720;26;19998;-67
2024/04/25 02:00:40;;;;;;;2.38;1.83;;;;;;;;;;5476967;26;20074;-65
2024/04/25 02:03:10;;;;;;;2.10;1.70;;;;;;;;;;5486811;26;20002;-64
2024/04/25 02:05:42;;;;;;;2.72;1.67;;;;;;;;;;5467723;26;20010;-65
2024/04/25 02:08:13;;;;;;;2.63;1.58;;;;;;;;;;5473751;26;20002;-65
2024/04/25 02:10:46;;;;;;;2.25;1.73;;;;;;;;;;5466147;26;20011;-67
2024/04/25 02:13:16;;;;;;;2.20;1.73;;;;;;;;;;5474314;26;20002;-65
2024/04/25 02:15:46;;;;;;;1.80;1.60;;;;;;;;;;5477117;26;20494;-64
2024/04/25 02:18:16;;;;;;;2.50;2.03;;;;;;;;;;5479957;26;20013;-66
2024/04/25 02:26:22;;;;;;;2.45;1.58;;;;;;;;;;5465971;26;19999;-65
2024/04/25 02:28:52;;;;;;;2.55;1.80;;;;;;;;;;5485712;26;20002;-68
2024/04/25 02:31:28;;;;;;;2.75;1.83;;;;;;;;;;5478581;26;19998;-66
2024/04/25 02:33:58;;;;;;;2.20;1.83;;;;;;;;;;5483660;26;20051;-67
2024/04/25 02:36:28;;;;;;;1.90;1.70;;;;;;;;;;5481602;26;19998;-66
2024/04/25 02:38:58;;;;;;;2.28;2.05;;;;;;;;;;5484165;26;20203;-67
2024/04/25 02:41:31;;;;;;;2.53;1.77;;;;;;;;;;5467019;26;19994;-66
2024/04/25 02:44:01;;;;;;;4.30;1.50;;;;;;;;;;5480816;26;20002;-68
2024/04/25 02:46:29;;;;;;;2.78;1.95;;;;;;;;;;5482083;26;20834;-65
2024/04/25 02:48:59;;;;;;;1.90;1.70;;;;;;;;;;5483809;26;20448;-65
2024/04/25 02:51:28;;;;;;;2.00;1.63;;;;;;;;;;5481029;26;20398;-64
2024/04/25 02:53:58;;;;;;;2.15;1.83;;;;;;;;;;5476283;26;20016;-66
2024/04/25 02:56:25;;;;;;;3.88;2.10;;;;;;;;;;5464064;26;20356;-64
2024/04/25 02:58:58;;;;;;;2.42;1.83;;;;;;;;;;5478997;26;20570;-65
2024/04/25 03:01:25;;;;;;;2.47;1.58;;;;;;;;;;5479617;26;20335;-66
2024/04/25 03:03:56;;;;;;;3.10;1.65;;;;;;;;;;5482262;26;20002;-65
2024/04/25 03:06:25;;;;;;;2.60;2.03;;;;;;;;;;5478169;26;20008;-66
2024/04/25 03:08:55;;;;;;;2.80;2.10;;;;;;;;;;5467497;26;20014;-65
2024/04/25 03:11:23;;;;;;;2.85;2.08;;;;;;;;;;5468654;26;20013;-66
2024/04/25 03:13:53;;;;;;;2.70;2.10;;;;;;;;;;5480638;26;20039;-65
2024/04/25 03:16:23;;;;;;;2.47;1.75;;;;;;;;;;5483292;26;20392;-66
2024/04/25 03:18:53;;;;;;;3.75;1.80;;;;;;;;;;5477458;26;20006;-65
2024/04/25 03:21:21;;;;;;;2.75;1.70;;;;;;;;;;5476766;26;20030;-63
2024/04/25 03:23:51;;;;;;;2.45;1.70;;;;;;;;;;5476168;26;20010;-64
2024/04/25 03:26:19;;;;;;;4.68;1.80;;;;;;;;;;5452247;26;20045;-64
2024/04/25 03:28:49;;;;;;;3.08;2.15;;;;;;;;;;5439699;26;20014;-65
2024/04/25 03:31:19;;;;;;;2.70;1.70;;;;;;;;;;5421870;26;20325;-66
2024/04/25 03:33:50;;;;;;;2.63;2.10;;;;;;;;;;5436524;26;20039;-65
2024/04/25 03:36:21;;;;;;;5.28;1.90;;;;;;;;;;5448073;26;20013;-64
2024/04/25 03:38:51;;;;;;;2.17;1.58;;;;;;;;;;5442898;26;20470;-65
2024/04/25 03:41:21;;;;;;;2.30;2.05;;;;;;;;;;5440873;26;20324;-64
2024/04/25 03:43:51;;;;;;;2.13;1.80;;;;;;;;;;5438349;26;20035;-66
2024/04/25 03:46:21;;;;;;;3.25;1.88;;;;;;;;;;5461523;26;19998;-65
2024/04/25 03:48:54;;;;;;;1.95;1.58;;;;;;;;;;5442993;26;20083;-65
2024/04/25 03:51:24;;;;;;;2.13;1.73;;;;;;;;;;5450167;26;20059;-65
2024/04/25 03:53:54;;;;;;;5.30;1.60;;;;;;;;;;5465449;26;20013;-66
2024/04/25 03:56:25;;;;;;;2.65;2.00;;;;;;;;;;5433098;26;20010;-65
2024/04/25 03:58:55;;;;;;;2.58;1.95;;;;;;;;;;5429802;26;20007;-64
2024/04/25 04:01:25;;;;;;;3.97;2.45;;;;;;;;;;5431064;26;20007;-64
2024/04/25 04:03:58;;;;;;;4.90;1.98;;;;;;;;;;5447846;26;20554;-66
2024/04/25 04:06:28;;;;;;;2.28;1.77;;;;;;;;;;5426334;26;20482;-65
2024/04/25 04:08:58;;;;;;;5.18;1.80;;;;;;;;;;5446861;26;20014;-66
2024/04/25 04:11:28;;;;;;;2.53;1.83;;;;;;;;;;5432425;26;20080;-67
2024/04/25 04:13:58;;;;;;;2.72;2.05;;;;;;;;;;5436243;26;20007;-65
2024/04/25 04:16:28;;;;;;;2.10;1.75;;;;;;;;;;5440831;26;20586;-68
2024/04/25 04:19:01;;;;;;;3.28;2.17;;;;;;;;;;5444793;26;20034;-65
2024/04/25 04:21:31;;;;;;;2.97;1.92;;;;;;;;;;5458647;26;19999;-65
2024/04/25 04:24:01;;;;;;;2.33;1.85;;;;;;;;;;5453047;26;20020;-65
2024/04/25 04:26:31;;;;;;;3.00;2.10;;;;;;;;;;5423820;26;20014;-65
2024/04/25 04:29:01;;;;;;;3.28;1.92;;;;;;;;;;5446340;26;20520;-65
2024/04/25 04:31:32;;;;;;;2.10;1.70;;;;;;;;;;5435010;26;20011;-64
2024/04/25 04:34:04;;;;;;;4.28;2.00;;;;;;;;;;5438278;26;20068;-63
2024/04/25 04:36:35;;;;;;;3.50;2.00;;;;;;;;;;5442899;26;20003;-62
2024/04/25 04:39:06;;;;;;;2.83;1.95;;;;;;;;;;5427485;26;20453;-68
2024/04/25 04:41:36;;;;;;;2.78;2.00;;;;;;;;;;5414975;26;20010;-64
2024/04/25 04:44:06;;;;;;;2.80;1.85;;;;;;;;;;5430527;26;20014;-64
2024/04/25 04:46:36;;;;;;;3.22;2.20;;;;;;;;;;5438531;26;20039;-64
2024/04/25 04:49:09;;;;;;;3.22;1.90;;;;;;;;;;5429407;26;20003;-65
2024/04/25 04:51:42;;;;;;;2.33;1.52;;;;;;;;;;5432981;26;20464;-65
2024/04/25 04:54:13;;;;;;;3.05;2.35;;;;;;;;;;5434713;26;20003;-66
2024/04/25 04:56:44;;;;;;;3.95;2.00;;;;;;;;;;5434836;26;20075;-63
2024/04/25 04:59:14;;;;;;;2.55;1.95;;;;;;;;;;5415435;26;20003;-63
2024/04/25 05:01:45;;;;;;;2.35;1.88;;;;;;;;;;5418995;26;20351;-66
2024/04/25 05:04:18;;;;;;;2.65;1.95;;;;;;;;;;5420279;26;20037;-64
2024/04/25 05:06:48;;;;;;;5.82;1.95;;;;;;;;;;5415860;26;21408;-65
2024/04/25 05:09:18;;;;;;;4.40;2.30;;;;;;;;;;5425326;26;20003;-64
2024/04/25 05:11:48;;;;;;;3.45;1.77;;;;;;;;;;5436371;26;20002;-64
2024/04/25 05:14:18;;;;;;;3.15;1.65;;;;;;;;;;5423450;26;20104;-67
2024/04/25 05:16:50;;;;;;;2.00;1.52;;;;;;;;;;5427329;26;20081;-66
2024/04/25 05:19:23;;;;;;;2.70;2.10;;;;;;;;;;5432783;26;20000;-64
2024/04/25 05:21:55;;;;;;;2.05;1.50;;;;;;;;;;5416568;26;20437;-64
2024/04/25 05:24:25;;;;;;;2.47;1.85;;;;;;;;;;5446992;26;20006;-66
2024/04/25 05:26:55;;;;;;;3.45;1.80;;;;;;;;;;5472339;26;20467;-65
2024/04/25 05:29:25;;;;;;;2.10;1.80;;;;;;;;;;5483985;26;20500;-63
2024/04/25 05:31:57;;;;;;;2.75;1.75;;;;;;;;;;5486054;26;20021;-64
2024/04/25 05:34:30;;;;;;;2.35;1.88;;;;;;;;;;5482088;26;20588;-64
2024/04/25 05:37:00;;;;;;;1.60;1.50;;;;;;;;;;5477815;26;20455;-66
2024/04/25 05:39:30;;;;;;;2.65;1.70;;;;;;;;;;5484409;26;20002;-65
2024/04/25 05:42:00;;;;;;;3.67;2.20;;;;;;;;;;5476433;26;20519;-62
2024/04/25 05:44:30;;;;;;;2.20;1.85;;;;;;;;;;5484563;26;20468;-62
2024/04/25 05:47:00;;;;;;;4.25;1.70;;;;;;;;;;5485009;26;20019;-65
2024/04/25 05:49:33;;;;;;;1.65;1.50;;;;;;;;;;5483277;26;20018;-64
2024/04/25 05:52:03;;;;;;;2.88;1.75;;;;;;;;;;5485552;26;19995;-64
2024/04/25 05:54:34;;;;;;;5.10;1.80;;;;;;;;;;5477372;26;20463;-63
2024/04/25 05:57:04;;;;;;;2.75;1.58;;;;;;;;;;5484661;26;20009;-64
2024/04/25 05:59:34;;;;;;;3.47;2.10;;;;;;;;;;5484443;26;20002;-63
2024/04/25 06:02:07;;;;;;;2.80;1.88;;;;;;;;;;5484703;26;19998;-64
2024/04/25 06:04:40;;;;;;;2.45;1.90;;;;;;;;;;5480097;26;20014;-66
2024/04/25 06:07:10;;;;;;;3.40;1.67;;;;;;;;;;5482031;26;20405;-63
2024/04/25 06:09:40;;;;;;;2.28;1.70;;;;;;;;;;5486162;26;19998;-62
2024/04/25 06:12:10;;;;;;;2.35;1.80;;;;;;;;;;5484620;26;20074;-65
2024/04/25 06:14:40;;;;;;;2.92;1.70;;;;;;;;;;5485562;26;19998;-65
2024/04/25 06:17:11;;;;;;;3.22;1.90;;;;;;;;;;5477295;26;20016;-65
2024/04/25 06:19:47;;;;;;;2.20;1.52;;;;;;;;;;5464244;26;20451;-63
2024/04/25 06:22:17;;;;;;;5.18;1.83;;;;;;;;;;5481649;26;20455;-64
2024/04/25 06:24:47;;;;;;;2.55;1.83;;;;;;;;;;5483777;26;20006;-65
2024/04/25 06:27:18;;;;;;;1.67;1.40;;;;;;;;;;5484099;26;19998;-66
2024/04/25 06:29:49;;;;;;;3.92;1.90;;;;;;;;;;5484056;26;19998;-63
2024/04/25 06:32:20;;;;;;;2.03;1.50;;;;;;;;;;5473196;26;20005;-64
2024/04/25 06:34:53;;;;;;;2.20;1.65;;;;;;;;;;5481582;26;20362;-65
2024/04/25 06:37:23;;;;;;;2.47;1.58;;;;;;;;;;5476581;26;19998;-64
2024/04/25 06:39:53;;;;;;;2.20;1.73;;;;;;;;;;5461431;26;20014;-66
2024/04/25 06:42:23;;;;;;;1.95;1.70;;;;;;;;;;5485663;26;20006;-63
2024/04/25 06:44:53;;;;;;;4.55;1.52;;;;;;;;;;5481542;26;20451;-63
2024/04/25 06:47:23;;;;;;;10.20;2.22;;;;;;;;;;5481174;26;20520;-67
2024/04/25 06:49:56;;;;;;;3.70;1.70;;;;;;;;;;5452983;26;20007;-64
2024/04/25 06:52:27;;;;;;;4.82;1.90;;;;;;;;;;5478404;26;20082;-63
2024/04/25 06:54:57;;;;;;;2.90;1.73;;;;;;;;;;5477534;26;20057;-70
2024/04/25 06:57:28;;;;;;;4.85;2.08;;;;;;;;;;5482069;26;20017;-64
2024/04/25 06:59:59;;;;;;;3.90;1.80;;;;;;;;;;5480912;26;20006;-66
2024/04/25 07:02:29;;;;;;;2.13;1.50;;;;;;;;;;5480999;26;19998;-63
2024/04/25 07:05:02;;;;;;;2.45;1.60;;;;;;;;;;5481528;26;20009;-64
2024/04/25 07:07:33;;;;;;;2.20;1.60;;;;;;;;;;5480801;26;20416;-63
2024/04/25 07:10:03;;;;;;;3.47;1.75;;;;;;;;;;5482293;26;20091;-64
2024/04/25 07:12:33;;;;;;;2.55;1.70;;;;;;;;;;5480191;26;20392;-65
2024/04/25 07:15:06;;;;;;;2.25;1.73;;;;;;;;;;5464591;26;20524;-61
2024/04/25 07:17:36;;;;;;;1.98;1.50;;;;;;;;;;5476192;26;20029;-60
2024/04/25 07:20:10;;;;;;;2.75;1.60;;;;;;;;;;5483675;26;20017;-62
2024/04/25 07:22:40;;;;;;;2.40;1.70;;;;;;;;;;5480740;26;20009;-61
2024/04/25 07:25:12;;;;;;;5.55;2.25;;;;;;;;;;5468431;26;20392;-62
2024/04/25 07:27:42;;;;;;;5.10;1.67;;;;;;;;;;5476394;26;19998;-61
2024/04/25 07:30:12;;;;;;;2.20;1.60;;;;;;;;;;5484761;26;20018;-60
2024/04/25 07:32:43;;;;;;;3.88;1.63;;;;;;;;;;5483981;26;20008;-61
2024/04/25 07:35:16;;;;;;;2.13;1.60;;;;;;;;;;5481900;26;20526;-61
2024/04/25 07:37:47;;;;;;;2.10;1.67;;;;;;;;;;5482755;26;20009;-62
2024/04/25 07:40:17;;;;;;;2.15;1.50;;;;;;;;;;5486171;26;20075;-63
2024/04/25 07:42:47;;;;;;;2.60;1.50;;;;;;;;;;5478527;26;20071;-62
2024/04/25 07:45:17;;;;;;;5.03;1.95;;;;;;;;;;5483460;26;20002;-60
2024/04/25 07:47:47;;;;;;;2.85;1.90;;;;;;;;;;5482656;26;20017;-61
2024/04/25 07:50:20;;;;;;;2.85;1.48;;;;;;;;;;5482376;26;20002;-61
2024/04/25 07:52:50;;;;;;;1.73;1.58;;;;;;;;;;5474097;26;20090;-62
2024/04/25 07:55:20;;;;;;;2.08;1.88;;;;;;;;;;5482943;26;20002;-63
2024/04/25 07:57:51;;;;;;;2.30;2.10;;;;;;;;;;5479993;26;19998;-62
2024/04/25 08:00:21;;;;;;;1.92;1.63;;;;;;;;;;5482995;26;20526;-63
2024/04/25 08:02:52;;;;;;;1.98;1.55;;;;;;;;;;5479082;26;19998;-62
2024/04/25 08:05:25;;;;;;;2.38;1.50;;;;;;;;;;5480900;26;20015;-61
2024/04/25 08:07:55;;;;;;;4.63;1.90;;;;;;;;;;5431653;26;20011;-61
2024/04/25 08:10:27;;;;;;;3.45;1.90;;;;;;;;;;5444110;26;20003;-64
2024/04/25 08:12:57;;;;;;;2.45;1.65;;;;;;;;;;5443155;26;20003;-61
2024/04/25 08:15:28;;;;;;;6.18;1.98;;;;;;;;;;5444877;26;20002;-61
2024/04/25 08:17:58;;;;;;;4.05;1.67;;;;;;;;;;5439493;26;20003;-61
2024/04/25 08:20:31;;;;;;;2.25;1.45;;;;;;;;;;5441640;26;20003;-62
2024/04/25 08:23:01;;;;;;;1.67;1.48;;;;;;;;;;5443087;26;20075;-62
2024/04/25 08:25:31;;;;;;;1.50;1.40;;;;;;;;;;5437607;26;20079;-61
2024/04/25 08:28:01;;;;;;;1.77;1.52;;;;;;;;;;5442039;26;20010;-64
2024/04/25 08:30:32;;;;;;;2.13;1.50;;;;;;;;;;5424321;26;20448;-63
2024/04/25 08:33:02;;;;;;;4.47;1.60;;;;;;;;;;5422142;26;20022;-61
2024/04/25 08:35:35;;;;;;;2.83;1.75;;;;;;;;;;5421650;26;20003;-62
2024/04/25 08:38:05;;;;;;;1.75;1.63;;;;;;;;;;5420530;26;20046;-62
2024/04/25 08:40:36;;;;;;;2.47;1.60;;;;;;;;;;5462136;26;20536;-64
2024/04/25 08:43:07;;;;;;;2.15;1.52;;;;;;;;;;5464016;26;19999;-62
2024/04/25 08:45:37;;;;;;;4.30;2.17;;;;;;;;;;5465023;26;20009;-63
2024/04/25 08:48:11;;;;;;;3.85;1.73;;;;;;;;;;5464175;26;20018;-62
2024/04/25 08:50:44;;;;;;;3.90;1.83;;;;;;;;;;5464546;26;20581;-63
2024/04/25 08:53:15;;;;;;;2.22;1.50;;;;;;;;;;5455254;26;19998;-62
2024/04/25 08:55:47;;;;;;;1.40;1.30;;;;;;;;;;5469645;26;20542;-63
2024/04/25 08:58:17;;;;;;;1.70;1.60;;;;;;;;;;5480312;26;19999;-62
2024/04/25 09:00:47;;;;;;;1.90;1.40;;;;;;;;;;5475295;26;20006;-60
2024/04/25 09:03:17;;;;;;;1.92;1.50;;;;;;;;;;5475792;26;20014;-64
2024/04/25 09:05:50;;;;;;;1.98;1.45;;;;;;;;;;5481386;26;20093;-63
2024/04/25 09:08:21;;;;;;;1.90;1.52;;;;;;;;;;5481212;26;20518;-63
2024/04/25 09:10:52;;;;;;;2.70;1.40;;;;;;;;;;5481825;26;20010;-63
2024/04/25 09:13:22;;;;;;;2.00;1.80;;;;;;;;;;5482028;26;20018;-61
2024/04/25 09:15:54;;;;;;;3.08;1.70;;;;;;;;;;5481973;26;19998;-62
2024/04/25 09:18:27;;;;;;;1.95;1.38;;;;;;;;;;5476064;26;20002;-63
2024/04/25 09:21:02;;;;;;;2.33;1.85;;;;;;;;;;5477870;26;20017;-61
2024/04/25 09:23:40;;;;;;;2.75;1.90;;;;;;;;;;5476482;26;20002;-63
2024/04/25 09:26:12;;;;;;;1.85;1.13;;;;;;;;;;5480567;26;20006;-61
2024/04/25 09:28:42;;;;;;;3.28;1.50;;;;;;;;;;5481093;26;20022;-63
2024/04/25 09:31:13;;;;;;;1.25;1.15;;;;;;;;;;5460065;26;19995;-62
2024/04/25 09:33:43;;;;;;;1.40;1.13;;;;;;;;;;5466098;26;20467;-62
2024/04/25 09:36:16;;;;;;;2.28;1.50;;;;;;;;;;5462848;26;20455;-62
2024/04/25 09:38:46;;;;;;;1.80;1.27;;;;;;;;;;5455527;26;20701;-62
2024/04/25 09:41:18;;;;;;;4.32;1.60;;;;;;;;;;5459594;26;20050;-62
2024/04/25 09:43:48;;;;;;;1.92;1.40;;;;;;;;;;5454667;26;19998;-63
2024/04/25 09:46:24;;;;;;;1.48;1.38;;;;;;;;;;5458286;26;20444;-62
2024/04/25 09:48:55;;;;;;;1.20;1.10;;;;;;;;;;5469555;26;20011;-61
2024/04/25 09:51:32;;;;;;;2.65;1.52;;;;;;;;;;5481694;26;19998;-62
2024/04/25 09:54:02;;;;;;;2.80;1.83;;;;;;;;;;5470235;26;20002;-62
2024/04/25 09:56:33;;;;;;;1.30;1.20;;;;;;;;;;5479666;26;20048;-63
2024/04/25 09:59:05;;;;;;;2.20;1.60;;;;;;;;;;5481988;26;20480;-61
2024/04/25 10:01:36;;;;;;;1.80;1.20;;;;;;;;;;5479376;26;20006;-64
2024/04/25 10:04:06;;;;;;;1.30;1.20;;;;;;;;;;5451528;26;20112;-65
2024/04/25 10:06:40;;;;;;;2.25;1.25;;;;;;;;;;5472708;26;20009;-64
2024/04/25 10:09:10;;;;;;;3.08;1.50;;;;;;;;;;5478192;26;20013;-64
2024/04/25 10:11:41;;;;;;;2.22;1.60;;;;;;;;;;5472975;26;20071;-63
2024/04/25 10:14:11;;;;;;;1.75;1.30;;;;;;;;;;5483414;26;20030;-62
2024/04/25 10:16:42;;;;;;;1.63;1.45;;;;;;;;;;5483280;26;19998;-61
2024/04/25 10:19:12;;;;;;;2.25;1.42;;;;;;;;;;5482260;26;20002;-62
2024/04/25 10:21:49;;;;;;;1.40;1.30;;;;;;;;;;5468385;26;20601;-61
2024/04/25 10:24:24;;;;;;;1.48;1.33;;;;;;;;;;5472893;26;19999;-61
2024/04/25 10:26:54;;;;;;;2.20;1.55;;;;;;;;;;5470159;26;20462;-61
2024/04/25 10:29:32;;;;;;;3.03;1.58;;;;;;;;;;5484447;26;20388;-62
2024/04/25 10:32:02;;;;;;;1.60;1.27;;;;;;;;;;5479768;26;20029;-62
2024/04/25 10:34:33;;;;;;;1.50;1.40;;;;;;;;;;5474288;26;20022;-61
2024/04/25 10:37:06;;;;;;;1.80;1.38;;;;;;;;;;5483298;26;20068;-61
2024/04/25 10:39:36;;;;;;;1.23;1.13;;;;;;;;;;5482364;26;20017;-62
2024/04/25 10:42:06;;;;;;;1.95;1.65;;;;;;;;;;5483698;26;19994;-62
2024/04/25 10:44:36;;;;;;;3.00;1.08;;;;;;;;;;5479987;26;20002;-63
2024/04/25 10:47:06;;;;;;;1.10;1.00;;;;;;;;;;5465800;26;20457;-62
2024/04/25 10:49:36;;;;;;;1.48;1.10;;;;;;;;;;5471988;26;20003;-63
2024/04/25 10:52:10;;;;;;;3.20;1.45;;;;;;;;;;5483647;26;20003;-63
2024/04/25 10:54:40;;;;;;;2.20;1.20;;;;;;;;;;5483851;26;20017;-63
2024/04/25 10:57:11;;;;;;;1.25;1.00;;;;;;;;;;5484052;26;19998;-63
2024/04/25 10:59:41;;;;;;;3.15;1.50;;;;;;;;;;5485174;26;20324;-63
2024/04/25 11:02:11;;;;;;;1.40;1.30;;;;;;;;;;5481066;26;20018;-63
2024/04/25 11:04:43;;;;;;;2.08;1.27;;;;;;;;;;5475422;26;20560;-62
2024/04/25 11:07:16;;;;;;;2.88;1.40;;;;;;;;;;5484101;26;20088;-62
2024/04/25 11:09:49;;;;;;;2.00;1.52;;;;;;;;;;5483384;26;20002;-63
2024/04/25 11:12:20;;;;;;;1.70;1.30;;;;;;;;;;5475287;26;19998;-61
2024/04/25 11:14:51;;;;;;;1.40;1.30;;;;;;;;;;5483905;26;20012;-61
2024/04/25 11:17:21;;;;;;;3.58;1.17;;;;;;;;;;5482698;26;20276;-61
2024/04/25 11:19:51;;;;;;;3.90;1.20;;;;;;;;;;5484815;26;20074;-62
2024/04/25 11:22:24;;;;;;;1.10;0.93;;;;;;;;;;5463894;26;20498;-62
2024/04/25 11:25:18;;;;;;;1.27;1.17;;;;;;;;;;5474690;26;20014;-62
2024/04/25 11:27:49;;;;;;;1.88;1.25;;;;;;;;;;5441356;26;20504;-62
2024/04/25 11:30:19;;;;;;;1.63;1.25;;;;;;;;;;5434778;26;20017;-63
2024/04/25 11:32:49;;;;;;;1.38;1.27;;;;;;;;;;5431303;26;20014;-63
2024/04/25 11:35:22;;;;;;;2.95;1.23;;;;;;;;;;5431344;26;20010;-62
2024/04/25 11:37:57;;;;;;;1.20;1.00;;;;;;;;;;5444821;26;20480;-64
2024/04/25 11:40:27;;;;;;;;;;;;;;;;;;5448675;26;19995;-64
2024/04/25 11:42:57;;;;;;;1.30;1.10;;;;;;;;;;5443267;26;19974;-62
2024/04/25 11:45:27;;;;;;;1.35;1.20;;;;;;;;;;5448799;26;20013;-64
2024/04/25 11:48:02;;;;;;;;;;;;;;;;;;5441520;26;20002;-64
2024/04/25 11:50:32;;;;;;;1.40;1.10;;;;;;;;;;5447107;26;19924;-64
2024/04/25 11:53:08;;;;;;;1.63;1.00;;;;;;;;;;5447982;26;20003;-64
2024/04/25 11:55:38;;;;;;;2.03;1.17;;;;;;;;;;5445569;26;20010;-64
2024/04/25 11:58:09;;;;;;;2.42;1.30;;;;;;;;;;5447039;26;20026;-64
2024/04/25 12:00:40;;;;;;;1.85;1.20;;;;;;;;;;5445150;26;19995;-62
2024/04/25 12:03:10;;;;;;;2.53;1.33;;;;;;;;;;5427623;26;20003;-64
2024/04/25 12:05:40;;;;;;;2.58;1.25;;;;;;;;;;5462062;26;20007;-62
2024/04/25 12:08:13;;;;;;;3.67;1.60;;;;;;;;;;5447838;26;20007;-64
2024/04/25 12:10:44;;;;;;;2.35;0.98;;;;;;;;;;5447784;26;19999;-64
2024/04/25 12:13:14;;;;;;;1.50;1.25;;;;;;;;;;5433507;26;20003;-64
2024/04/25 12:15:44;;;;;;;1.42;1.20;;;;;;;;;;5448492;26;20083;-65
2024/04/25 12:18:15;;;;;;;3.58;1.30;;;;;;;;;;5447834;26;20014;-65
2024/04/25 12:20:45;;;;;;;1.55;1.15;;;;;;;;;;5447918;26;20072;-65
2024/04/25 12:23:18;;;;;;;1.75;1.30;;;;;;;;;;5434624;26;20395;-65
2024/04/25 12:25:50;;;;;;;1.23;1.10;;;;;;;;;;5446220;26;20380;-63
2024/04/25 12:28:20;;;;;;;2.50;1.40;;;;;;;;;;5432670;26;20819;-64
2024/04/25 12:30:50;;;;;;;1.77;1.10;;;;;;;;;;5406243;26;20022;-63
2024/04/25 12:33:20;;;;;;;1.45;1.17;;;;;;;;;;5421440;26;19999;-64
2024/04/25 12:35:51;;;;;;;1.15;0.98;;;;;;;;;;5422404;26;20444;-64
2024/04/25 12:38:24;;;;;;;1.98;1.10;;;;;;;;;;5420730;26;20017;-63
2024/04/25 12:40:54;;;;;;;1.67;1.55;;;;;;;;;;5423677;26;20007;-63
2024/04/25 12:43:25;;;;;;;1.25;1.10;;;;;;;;;;5418260;26;20007;-64
2024/04/25 12:45:55;;;;;;;1.92;1.00;;;;;;;;;;5421729;26;20006;-64
2024/04/25 12:48:32;;;;;;;2.25;1.20;;;;;;;;;;5422234;26;20021;-64
2024/04/25 12:51:02;;;;;;;1.33;1.20;;;;;;;;;;5420968;26;20040;-64
2024/04/25 12:53:35;;;;;;;2.63;1.52;;;;;;;;;;5434414;26;20047;-63
2024/04/25 12:56:06;;;;;;;2.05;1.60;;;;;;;;;;5436592;26;20019;-65
2024/04/25 12:58:40;;;;;;;1.45;1.30;;;;;;;;;;5430519;26;20026;-63
2024/04/25 13:01:11;;;;;;;1.52;1.27;;;;;;;;;;5434803;26;20015;-63
2024/04/25 13:03:42;;;;;;;1.70;1.17;;;;;;;;;;5433223;26;20551;-63
2024/04/25 13:06:12;;;;;;;1.90;1.70;;;;;;;;;;5427450;26;20004;-63
2024/04/25 13:08:46;;;;;;;1.73;1.30;;;;;;;;;;5420713;26;20003;-63
2024/04/25 13:11:18;;;;;;;3.45;1.17;;;;;;;;;;5425976;26;20567;-63
2024/04/25 13:13:48;;;;;;;1.48;1.20;;;;;;;;;;5427482;26;20075;-63
2024/04/25 13:16:19;;;;;;;1.30;1.10;;;;;;;;;;5432299;26;20000;-64
2024/04/25 13:18:49;;;;;;;3.75;1.38;;;;;;;;;;5418809;26;20412;-63
2024/04/25 13:21:19;;;;;;;1.35;1.20;;;;;;;;;;5421438;26;20041;-63
2024/04/25 13:23:53;;;;;;;2.63;1.00;;;;;;;;;;5434142;26;20446;-64
2024/04/25 13:26:29;;;;;;;1.48;1.13;;;;;;;;;;5440789;26;20013;-64
2024/04/25 13:29:00;;;;;;;1.95;1.10;;;;;;;;;;5455494;26;20010;-63
2024/04/25 13:31:31;;;;;;;3.58;1.30;;;;;;;;;;5454023;26;20010;-64
2024/04/25 13:34:02;;;;;;;1.35;1.00;;;;;;;;;;5460217;26;20364;-63
2024/04/25 13:36:32;;;;;;;1.60;0.90;;;;;;;;;;5456452;26;20507;-63
2024/04/25 13:39:05;;;;;;;1.80;0.90;;;;;;;;;;5463170;26;20016;-63
2024/04/25 13:41:35;;;;;;;1.63;1.20;;;;;;;;;;5462811;26;20016;-64
2024/04/25 13:44:05;;;;;;;3.20;1.23;;;;;;;;;;5463396;26;20023;-64
2024/04/25 13:46:36;;;;;;;2.60;1.10;;;;;;;;;;5480003;26;20002;-64
2024/04/25 13:49:06;;;;;;;0.70;0.70;;;;;;;;;;5474713;26;20507;-65
2024/04/25 13:51:37;;;;;;;1.13;1.02;;;;;;;;;;5484870;26;20006;-64
2024/04/25 13:54:09;;;;;;;2.45;1.05;;;;;;;;;;5466280;26;20527;-65
2024/04/25 13:56:40;;;;;;;1.63;0.93;;;;;;;;;;5468918;26;20009;-64
2024/04/25 13:59:10;;;;;;;1.35;0.90;;;;;;;;;;5471481;26;20086;-63
2024/04/25 14:01:40;;;;;;;1.08;0.80;;;;;;;;;;5482695;26;20049;-63
2024/04/25 14:04:10;;;;;;;1.77;0.80;;;;;;;;;;5483054;26;20002;-64
2024/04/25 14:06:42;;;;;;;0.90;0.80;;;;;;;;;;5470322;26;20013;-64
2024/04/25 14:09:15;;;;;;;0.70;0.70;;;;;;;;;;5480416;26;20470;-64
2024/04/25 14:11:45;;;;;;;2.13;1.20;;;;;;;;;;5479474;26;20014;-64
2024/04/25 14:14:20;;;;;;;2.58;1.10;;;;;;;;;;5468074;26;19999;-64
2024/04/25 14:16:52;;;;;;;1.00;0.90;;;;;;;;;;5463584;26;20002;-64
2024/04/25 14:19:25;;;;;;;1.30;0.82;;;;;;;;;;5466717;26;20380;-63
2024/04/25 14:21:55;;;;;;;1.00;0.85;;;;;;;;;;5472082;26;20562;-64
2024/04/25 14:24:31;;;;;;;1.50;1.10;;;;;;;;;;5473388;26;20006;-62
2024/04/25 14:29:47;;;;;;;2.67;1.05;;;;;;;;;;5473531;26;19998;-63
2024/04/25 14:32:18;;;;;;;2.25;0.82;;;;;;;;;;5484654;26;20470;-64
2024/04/25 14:34:49;;;;;;;0.88;0.80;;;;;;;;;;5485284;26;20002;-64
2024/04/25 14:37:20;;;;;;;1.88;1.08;;;;;;;;;;5478678;26;20003;-64
2024/04/25 14:39:53;;;;;;;2.17;1.13;;;;;;;;;;5483542;26;19995;-65
2024/04/25 14:42:24;;;;;;;1.27;1.00;;;;;;;;;;5477794;26;20351;-63
2024/04/25 14:44:54;;;;;;;2.20;0.75;;;;;;;;;;5477781;26;20026;-65
2024/04/25 14:47:24;;;;;;;1.40;0.77;;;;;;;;;;5472343;26;20014;-63
2024/04/25 14:49:54;;;;;;;2.65;1.10;;;;;;;;;;5481910;26;20418;-64
2024/04/25 14:52:25;;;;;;;1.75;1.08;;;;;;;;;;5473123;26;20086;-63
2024/04/25 14:54:58;;;;;;;1.10;0.90;;;;;;;;;;5468773;26;20089;-64
2024/04/25 14:57:28;;;;;;;1.42;0.90;;;;;;;;;;5462452;26;20002;-64
2024/04/25 14:59:58;;;;;;;1.40;0.80;;;;;;;;;;5464150;26;20473;-65
2024/04/25 15:02:29;;;;;;;2.05;1.00;;;;;;;;;;5461172;26;20002;-62
2024/04/25 15:05:00;;;;;;;1.70;0.90;;;;;;;;;;5461699;26;20017;-63
2024/04/25 15:07:30;;;;;;;2.05;0.90;;;;;;;;;;5463647;26;20149;-63
2024/04/25 15:10:03;;;;;;;0.90;0.68;;;;;;;;;;5463308;26;20017;-63
2024/04/25 15:12:37;;;;;;;1.45;0.95;;;;;;;;;;5463065;26;20010;-64
2024/04/25 15:15:07;;;;;;;1.35;1.00;;;;;;;;;;5463460;26;20375;-66